Time;durP1;ratioP1;P1;durP2;ratioP2;P2;SDS_P1;SDS_P2;PMS_P1;PMS_P2;Temp;Humidity;BMP_temperature;BMP_pressure;BME280_temperature;BME280_humidity;BME280_pressure;Samples;Min_cycle;Max_cycle;Signal;HPM_P1;HPM_P2
2022/01/15 00:02:07;;;;;;;19.53;3.97;;;4.20;99.90;;;;;;5078618;28;20461;-71
2022/01/15 00:04:34;;;;;;;13.20;3.93;;;4.20;99.90;;;;;;5078449;28;20489;-72
2022/01/15 00:07:02;;;;;;;17.50;5.00;;;4.20;99.90;;;;;;5077896;28;20910;-73
2022/01/15 00:09:29;;;;;;;21.43;5.13;;;4.20;99.90;;;;;;5078945;28;20519;-72
2022/01/15 00:11:56;;;;;;;19.47;6.23;;;4.20;99.90;;;;;;5078233;28;20454;-72
2022/01/15 00:14:27;;;;;;;22.37;4.60;;;4.10;99.90;;;;;;5078031;28;20454;-72
2022/01/15 00:17:04;;;;;;;16.77;4.77;;;4.10;99.90;;;;;;5078176;28;20764;-72
2022/01/15 00:19:40;;;;;;;16.90;4.40;;;4.10;99.90;;;;;;5078297;28;20466;-72
2022/01/15 00:22:10;;;;;;;25.63;5.33;;;4.10;99.90;;;;;;5078273;28;20442;-72
2022/01/15 00:24:37;;;;;;;18.90;4.87;;;4.10;99.90;;;;;;5077686;28;20486;-72
2022/01/15 00:27:04;;;;;;;22.93;4.50;;;4.10;99.90;;;;;;5077561;28;20462;-73
2022/01/15 00:29:32;;;;;;;16.90;5.70;;;4.10;99.90;;;;;;5077339;28;20466;-72
2022/01/15 00:31:59;;;;;;;20.40;5.23;;;4.10;99.90;;;;;;5077270;28;20454;-72
2022/01/15 00:34:26;;;;;;;12.90;4.40;;;4.10;99.90;;;;;;5076897;28;20454;-71
2022/01/15 00:36:52;;;;;;;16.53;4.90;;;4.00;99.90;;;;;;5077117;28;20945;-72
2022/01/15 00:39:21;;;;;;;20.53;4.50;;;4.00;99.90;;;;;;5077480;28;20469;-71
2022/01/15 00:41:49;;;;;;;18.23;5.30;;;4.00;99.90;;;;;;5077247;28;20474;-71
2022/01/15 00:44:16;;;;;;;12.83;4.43;;;4.00;99.90;;;;;;5077356;28;20503;-72
2022/01/15 00:46:43;;;;;;;19.20;3.70;;;4.00;99.90;;;;;;5077413;28;20469;-72
2022/01/15 00:49:10;;;;;;;16.77;3.87;;;4.00;99.90;;;;;;5077248;28;20525;-72
2022/01/15 00:51:41;;;;;;;19.27;4.53;;;3.90;99.90;;;;;;5077427;28;20466;-71
2022/01/15 00:54:08;;;;;;;8.53;4.27;;;3.90;99.90;;;;;;5077150;28;20431;-72
2022/01/15 00:56:37;;;;;;;11.80;3.83;;;3.90;99.90;;;;;;5077281;28;20918;-71
2022/01/15 00:59:07;;;;;;;23.37;4.00;;;3.90;99.90;;;;;;5076818;28;20469;-71
2022/01/15 01:01:34;;;;;;;10.13;3.77;;;3.80;99.90;;;;;;5076219;28;20454;-71
2022/01/15 01:04:03;;;;;;;17.10;3.90;;;3.90;99.90;;;;;;5076500;28;20478;-71
2022/01/15 01:06:30;;;;;;;17.50;4.80;;;3.80;99.90;;;;;;5076293;28;20515;-71
2022/01/15 01:08:57;;;;;;;23.03;4.43;;;3.80;99.90;;;;;;5076611;28;20458;-71
2022/01/15 01:11:31;;;;;;;19.30;4.47;;;3.80;99.90;;;;;;5076372;28;20458;-72
2022/01/15 01:24:58;;;;;;;22.80;5.23;;;3.80;99.90;;;;;;5075865;28;20473;-71
2022/01/15 01:27:28;;;;;;;21.57;5.30;;;3.70;99.90;;;;;;5076014;28;20883;-71
2022/01/15 01:30:11;;;;;;;24.40;7.67;;;3.70;99.90;;;;;;5076239;28;20458;-72
2022/01/15 01:32:49;;;;;;;34.90;10.33;;;3.70;99.90;;;;;;5076149;28;20446;-71
2022/01/15 01:35:28;;;;;;;30.90;10.10;;;3.70;99.90;;;;;;5076003;28;20458;-70
2022/01/15 01:37:58;;;;;;;17.60;7.67;;;3.70;99.90;;;;;;5075829;28;20438;-71
2022/01/15 01:40:36;;;;;;;28.63;8.23;;;3.70;99.90;;;;;;5075971;28;20641;-71
2022/01/15 01:43:08;;;;;;;32.03;7.33;;;3.60;99.90;;;;;;5075790;28;20474;-71
2022/01/15 01:45:36;;;;;;;23.67;6.33;;;3.60;99.90;;;;;;5075632;28;20597;-71
2022/01/15 01:48:05;;;;;;;22.03;5.47;;;3.60;99.90;;;;;;5075228;28;20483;-71
2022/01/15 01:50:31;;;;;;;15.03;4.77;;;3.60;99.90;;;;;;5075675;28;20540;-72
2022/01/15 01:52:59;;;;;;;23.13;5.40;;;3.50;99.90;;;;;;5075703;28;20458;-71
2022/01/15 01:55:28;;;;;;;23.27;5.07;;;3.50;99.90;;;;;;5075987;28;20466;-72
2022/01/15 01:57:57;;;;;;;16.43;4.50;;;3.50;99.90;;;;;;5075879;28;20458;-72
2022/01/15 02:00:26;;;;;;;21.90;4.50;;;3.50;99.90;;;;;;5075940;28;20465;-72
2022/01/15 02:02:55;;;;;;;19.00;5.17;;;3.50;99.90;;;;;;5075356;28;20458;-72
2022/01/15 02:05:22;;;;;;;23.10;4.03;;;3.50;99.90;;;;;;5075479;28;20486;-73
2022/01/15 02:07:52;;;;;;;21.27;4.23;;;3.50;99.90;;;;;;5075679;28;20454;-71
2022/01/15 02:10:20;;;;;;;20.93;5.63;;;3.50;99.90;;;;;;5075749;28;20458;-71
2022/01/15 02:12:50;;;;;;;19.67;4.23;;;3.50;99.90;;;;;;5075662;28;20787;-70
2022/01/15 02:15:19;;;;;;;18.30;4.20;;;3.40;99.90;;;;;;5076076;28;20512;-71
2022/01/15 02:17:47;;;;;;;13.00;3.40;;;3.40;99.90;;;;;;5075914;28;20465;-72
2022/01/15 02:25:52;;;;;;;22.80;5.70;;;3.30;99.90;;;;;;5075316;28;20428;-72
2022/01/15 02:28:22;;;;;;;16.90;4.13;;;3.30;99.90;;;;;;5075233;28;20456;-72
2022/01/15 02:30:53;;;;;;;14.27;3.97;;;3.30;99.90;;;;;;5074853;28;20458;-72
2022/01/15 02:33:22;;;;;;;17.10;3.00;;;3.30;99.90;;;;;;5075400;28;20470;-72
2022/01/15 02:35:50;;;;;;;21.63;5.13;;;3.30;99.90;;;;;;5074930;28;20547;-72
2022/01/15 02:38:17;;;;;;;24.07;4.63;;;3.20;99.90;;;;;;5075293;28;20462;-72
2022/01/15 02:40:44;;;;;;;17.30;4.10;;;3.20;99.90;;;;;;5074775;28;20825;-72
2022/01/15 02:43:16;;;;;;;20.93;5.00;;;3.30;99.90;;;;;;5074698;28;20458;-70
2022/01/15 02:45:53;;;;;;;15.50;3.93;;;3.20;99.90;;;;;;5074580;28;20773;-71
2022/01/15 02:48:21;;;;;;;21.10;4.97;;;3.20;99.90;;;;;;5074296;28;20477;-71
2022/01/15 02:50:48;;;;;;;20.93;4.60;;;3.20;99.90;;;;;;5074524;28;20458;-71
2022/01/15 02:53:17;;;;;;;14.73;3.90;;;3.10;99.90;;;;;;5074370;28;20485;-71
2022/01/15 02:55:45;;;;;;;18.60;3.57;;;3.10;99.90;;;;;;5074644;28;20465;-71
2022/01/15 02:58:13;;;;;;;26.60;4.70;;;3.10;99.90;;;;;;5074454;28;20591;-71
2022/01/15 03:00:40;;;;;;;23.20;4.57;;;3.00;99.90;;;;;;5074140;28;20465;-71
2022/01/15 03:03:07;;;;;;;11.17;3.80;;;3.00;99.90;;;;;;5074277;28;20454;-71
2022/01/15 03:05:35;;;;;;;12.73;4.07;;;3.00;99.90;;;;;;5074224;28;20470;-71
2022/01/15 03:08:01;;;;;;;18.33;4.10;;;3.00;99.90;;;;;;5074503;28;20462;-71
2022/01/15 03:10:30;;;;;;;25.67;5.27;;;3.00;99.90;;;;;;5073726;28;20471;-71
2022/01/15 03:12:58;;;;;;;19.33;4.00;;;3.00;99.90;;;;;;5074168;28;20474;-72
2022/01/15 03:15:25;;;;;;;11.17;3.23;;;2.90;99.90;;;;;;5074347;28;20465;-73
2022/01/15 03:17:52;;;;;;;15.70;3.27;;;2.90;99.90;;;;;;5074205;28;20458;-72
2022/01/15 03:20:21;;;;;;;23.40;4.40;;;2.90;99.90;;;;;;5073950;28;20922;-71
2022/01/15 03:22:48;;;;;;;13.07;3.90;;;2.90;99.90;;;;;;5074171;28;20458;-72
2022/01/15 03:25:15;;;;;;;15.83;3.63;;;2.90;99.90;;;;;;5073811;28;20974;-71
2022/01/15 03:27:43;;;;;;;14.00;3.40;;;2.80;99.90;;;;;;5073852;28;20795;-71
2022/01/15 03:30:12;;;;;;;20.43;4.10;;;2.80;99.90;;;;;;5073846;28;20454;-71
2022/01/15 03:32:42;;;;;;;20.63;4.00;;;2.80;99.90;;;;;;5073972;28;20513;-71
2022/01/15 03:35:11;;;;;;;19.60;4.30;;;2.80;99.90;;;;;;5074087;28;20769;-71
2022/01/15 03:37:38;;;;;;;12.03;4.10;;;2.80;99.90;;;;;;5074220;28;20479;-71
2022/01/15 03:40:06;;;;;;;16.33;4.60;;;2.80;99.90;;;;;;5073911;28;20791;-70
2022/01/15 03:42:33;;;;;;;17.73;4.13;;;2.70;99.90;;;;;;5073782;28;20458;-71
2022/01/15 03:45:01;;;;;;;20.53;3.47;;;2.70;99.90;;;;;;5073929;28;20490;-72
2022/01/15 03:47:28;;;;;;;19.53;4.30;;;2.70;99.90;;;;;;5073692;28;20481;-72
2022/01/15 03:49:55;;;;;;;18.87;3.50;;;2.70;99.90;;;;;;5073742;28;20553;-72
2022/01/15 03:52:22;;;;;;;12.47;3.70;;;2.60;99.90;;;;;;5073711;28;20883;-73
2022/01/15 03:54:48;;;;;;;16.43;3.57;;;2.70;99.90;;;;;;5074102;28;20454;-71
2022/01/15 03:57:15;;;;;;;14.70;4.33;;;2.60;99.90;;;;;;5073901;28;20803;-71
2022/01/15 03:59:42;;;;;;;14.80;4.00;;;2.60;99.90;;;;;;5074513;28;20461;-72
2022/01/15 04:02:10;;;;;;;17.73;4.60;;;2.60;99.90;;;;;;5073962;28;20449;-71
2022/01/15 04:04:37;;;;;;;18.77;4.30;;;2.60;99.90;;;;;;5073745;28;20511;-72
2022/01/15 04:07:04;;;;;;;19.70;4.27;;;2.60;99.90;;;;;;5077497;28;20457;-72
2022/01/15 04:09:31;;;;;;;17.30;3.97;;;2.60;99.90;;;;;;5081421;28;20804;-71
2022/01/15 04:11:58;;;;;;;16.87;4.47;;;2.60;99.90;;;;;;5074549;28;20465;-71
2022/01/15 04:14:24;;;;;;;16.20;3.80;;;2.60;99.90;;;;;;5074307;28;20481;-71
2022/01/15 04:16:51;;;;;;;17.07;4.33;;;2.60;99.90;;;;;;5074178;28;20781;-71
2022/01/15 04:19:20;;;;;;;19.30;4.50;;;2.60;99.90;;;;;;5074313;28;20449;-71
2022/01/15 04:21:47;;;;;;;16.63;4.10;;;2.60;99.90;;;;;;5073789;28;20545;-71
2022/01/15 04:24:14;;;;;;;22.70;4.60;;;2.60;99.90;;;;;;5073469;28;20814;-72
2022/01/15 04:26:40;;;;;;;20.27;5.03;;;2.60;99.90;;;;;;5073212;28;20930;-71
2022/01/15 04:29:07;;;;;;;25.33;4.80;;;2.60;99.90;;;;;;5073646;28;20755;-71
2022/01/15 04:31:46;;;;;;;25.33;5.17;;;2.60;99.90;;;;;;5073522;28;20454;-71
2022/01/15 04:34:14;;;;;;;21.50;5.30;;;2.60;99.90;;;;;;5073508;28;20763;-71
2022/01/15 04:36:43;;;;;;;11.80;4.30;;;2.60;99.90;;;;;;5076688;28;20464;-73
2022/01/15 04:39:10;;;;;;;24.43;6.03;;;2.60;99.90;;;;;;5077840;28;20486;-71
2022/01/15 04:41:37;;;;;;;21.37;5.00;;;2.50;99.90;;;;;;5076776;28;20915;-71
2022/01/15 04:44:05;;;;;;;23.23;5.80;;;2.50;99.90;;;;;;5076576;28;20485;-72
2022/01/15 04:46:32;;;;;;;15.63;4.90;;;2.40;99.90;;;;;;5076799;28;20469;-72
2022/01/15 04:48:58;;;;;;;20.90;5.17;;;2.40;99.90;;;;;;5076563;28;20493;-72
2022/01/15 04:51:25;;;;;;;16.17;4.93;;;2.40;99.90;;;;;;5077147;28;20536;-72
2022/01/15 04:53:54;;;;;;;13.33;5.43;;;2.40;99.90;;;;;;5076832;28;20438;-72
2022/01/15 04:56:21;;;;;;;24.97;4.47;;;2.40;99.90;;;;;;5077486;28;20520;-72
2022/01/15 04:58:48;;;;;;;14.40;4.53;;;2.30;99.90;;;;;;5077301;28;20588;-72
2022/01/15 05:01:17;;;;;;;25.53;6.30;;;2.30;99.90;;;;;;5077013;28;20927;-70
2022/01/15 05:03:44;;;;;;;24.90;5.17;;;2.30;99.90;;;;;;5077376;28;20450;-72
2022/01/15 05:06:11;;;;;;;20.87;5.57;;;2.30;99.90;;;;;;5077187;28;20458;-72
2022/01/15 05:08:40;;;;;;;26.63;5.43;;;2.30;99.90;;;;;;5077423;28;20466;-73
2022/01/15 05:11:20;;;;;;;28.60;5.73;;;2.30;99.90;;;;;;5077251;28;20799;-71
2022/01/15 05:13:49;;;;;;;14.93;4.57;;;2.30;99.90;;;;;;5077282;28;20499;-71
2022/01/15 05:16:16;;;;;;;13.63;5.90;;;2.30;99.90;;;;;;5077581;28;20458;-72
2022/01/15 05:18:43;;;;;;;27.53;5.40;;;2.20;99.90;;;;;;5076591;28;20462;-72
2022/01/15 05:21:09;;;;;;;32.37;7.67;;;2.10;99.90;;;;;;5076744;28;20459;-72
2022/01/15 05:23:36;;;;;;;20.27;6.47;;;2.10;99.90;;;;;;5076169;28;20907;-72
2022/01/15 05:26:03;;;;;;;19.67;6.10;;;2.10;99.90;;;;;;5076547;28;20494;-72
2022/01/15 05:28:31;;;;;;;26.50;6.00;;;2.10;99.90;;;;;;5076295;28;20454;-72
2022/01/15 05:30:57;;;;;;;31.67;7.43;;;2.10;99.90;;;;;;5076501;28;20459;-72
2022/01/15 05:33:24;;;;;;;21.97;5.57;;;2.10;99.90;;;;;;5077618;28;20458;-72
2022/01/15 05:35:51;;;;;;;25.97;6.00;;;2.10;99.90;;;;;;5077906;28;20461;-72
2022/01/15 05:38:20;;;;;;;36.30;6.57;;;2.00;99.90;;;;;;5080611;28;20458;-73
2022/01/15 05:40:46;;;;;;;18.97;5.40;;;2.00;99.90;;;;;;5077238;28;20538;-72
2022/01/15 05:43:13;;;;;;;19.27;5.80;;;1.90;99.90;;;;;;5078887;28;20469;-72
2022/01/15 05:45:41;;;;;;;23.23;6.17;;;1.90;99.90;;;;;;5077099;28;20493;-72
2022/01/15 05:48:08;;;;;;;32.43;6.27;;;1.90;99.90;;;;;;5075824;28;20478;-72
2022/01/15 05:50:35;;;;;;;15.47;5.10;;;1.90;99.90;;;;;;5077099;28;20468;-72
2022/01/15 05:53:04;;;;;;;15.60;5.33;;;1.90;99.90;;;;;;5077015;28;20481;-72
2022/01/15 05:55:32;;;;;;;20.77;6.30;;;1.90;99.90;;;;;;5077586;28;20966;-71
2022/01/15 05:57:58;;;;;;;16.80;6.30;;;1.90;99.90;;;;;;5077050;28;20454;-71
2022/01/15 06:00:28;;;;;;;16.97;5.20;;;1.90;99.90;;;;;;5077400;28;20500;-71
2022/01/15 06:02:56;;;;;;;25.37;6.90;;;2.00;99.90;;;;;;5076842;28;20451;-71
2022/01/15 06:05:25;;;;;;;16.77;6.40;;;2.10;99.90;;;;;;5077066;28;20520;-71
2022/01/15 06:07:52;;;;;;;20.37;6.63;;;2.10;99.90;;;;;;5076547;28;20515;-71
2022/01/15 06:10:21;;;;;;;22.80;7.73;;;2.10;99.90;;;;;;5076151;28;20458;-71
2022/01/15 06:12:48;;;;;;;18.67;6.90;;;2.20;99.90;;;;;;5075923;28;20477;-71
2022/01/15 06:15:16;;;;;;;24.53;7.50;;;2.20;99.90;;;;;;5076643;28;20770;-72
2022/01/15 06:17:43;;;;;;;27.13;5.87;;;2.30;99.90;;;;;;5075885;28;20549;-72
2022/01/15 06:20:14;;;;;;;26.33;7.33;;;2.30;99.90;;;;;;5076150;28;20824;-72
2022/01/15 06:22:41;;;;;;;25.47;7.97;;;2.20;99.90;;;;;;5077454;28;20450;-72
2022/01/15 06:25:12;;;;;;;34.10;7.10;;;2.20;99.90;;;;;;5077046;28;20485;-72
2022/01/15 06:27:39;;;;;;;36.77;9.43;;;2.20;99.90;;;;;;5076627;28;20442;-72
2022/01/15 06:30:10;;;;;;;27.43;8.20;;;2.20;99.90;;;;;;5075960;28;20743;-72
2022/01/15 06:32:37;;;;;;;24.07;7.63;;;2.10;99.90;;;;;;5075718;28;20456;-71
2022/01/15 06:35:12;;;;;;;40.40;7.50;;;2.10;99.90;;;;;;5075645;28;20465;-71
2022/01/15 06:37:42;;;;;;;26.10;8.23;;;2.10;99.90;;;;;;5075072;28;20438;-71
2022/01/15 06:40:10;;;;;;;23.00;6.50;;;2.00;99.90;;;;;;5075204;28;20830;-71
2022/01/15 06:42:37;;;;;;;31.70;8.13;;;2.00;99.90;;;;;;5075051;28;20465;-71
2022/01/15 06:45:05;;;;;;;28.27;7.07;;;2.00;99.90;;;;;;5074934;28;20497;-71
2022/01/15 06:47:33;;;;;;;24.17;7.53;;;1.90;99.90;;;;;;5074689;28;20478;-71
2022/01/15 06:50:04;;;;;;;23.87;7.90;;;1.90;99.90;;;;;;5075349;28;20461;-71
2022/01/15 06:52:32;;;;;;;34.07;8.00;;;1.90;99.90;;;;;;5075087;28;20469;-72
2022/01/15 06:55:00;;;;;;;17.90;6.27;;;1.90;99.90;;;;;;5074964;28;20458;-72
2022/01/15 06:57:27;;;;;;;23.93;7.40;;;1.80;99.90;;;;;;5074370;28;20458;-72
2022/01/15 06:59:54;;;;;;;26.73;7.90;;;1.80;99.90;;;;;;5074809;28;20454;-72
2022/01/15 07:02:21;;;;;;;20.20;7.40;;;1.80;99.90;;;;;;5074590;28;20490;-72
2022/01/15 07:04:48;;;;;;;21.60;6.07;;;1.80;99.90;;;;;;5074557;28;20488;-72
2022/01/15 07:07:16;;;;;;;16.47;7.30;;;1.80;99.90;;;;;;5074806;28;20486;-72
2022/01/15 07:09:45;;;;;;;25.43;7.30;;;1.80;99.90;;;;;;5074612;28;20470;-71
2022/01/15 07:12:14;;;;;;;25.83;7.07;;;1.90;99.90;;;;;;5074223;28;20910;-71
2022/01/15 07:14:41;;;;;;;29.10;7.73;;;1.90;99.90;;;;;;5075103;28;20519;-71
2022/01/15 07:17:10;;;;;;;19.70;7.30;;;1.90;99.90;;;;;;5074618;28;20845;-71
2022/01/15 07:19:37;;;;;;;21.20;8.67;;;1.90;99.90;;;;;;5074751;28;20498;-71
2022/01/15 07:22:04;;;;;;;20.40;7.10;;;2.00;99.90;;;;;;5074354;28;20465;-71
2022/01/15 07:24:31;;;;;;;24.70;7.73;;;2.00;99.90;;;;;;5074177;28;20462;-71
2022/01/15 07:27:02;;;;;;;18.03;6.73;;;2.00;99.90;;;;;;5074499;28;20823;-71
2022/01/15 07:29:31;;;;;;;24.50;8.97;;;1.90;99.90;;;;;;5075622;28;20487;-71
2022/01/15 07:31:58;;;;;;;25.13;7.87;;;1.90;99.90;;;;;;5074397;28;20751;-71
2022/01/15 07:34:25;;;;;;;17.30;5.70;;;1.90;99.90;;;;;;5074602;28;20515;-71
2022/01/15 07:36:57;;;;;;;20.30;6.30;;;1.80;99.90;;;;;;5074462;28;20461;-71
2022/01/15 07:39:24;;;;;;;36.57;7.20;;;1.80;99.90;;;;;;5074474;28;20458;-72
2022/01/15 07:41:52;;;;;;;19.43;7.13;;;1.70;99.90;;;;;;5074779;28;20534;-72
2022/01/15 07:44:19;;;;;;;17.50;7.10;;;1.70;99.90;;;;;;5074075;28;20464;-71
2022/01/15 07:46:47;;;;;;;23.23;7.43;;;1.80;99.90;;;;;;5074117;28;20596;-71
2022/01/15 07:49:14;;;;;;;23.77;7.77;;;1.70;99.90;;;;;;5073994;28;20443;-71
2022/01/15 07:51:41;;;;;;;22.17;7.73;;;1.70;99.90;;;;;;5074252;28;20477;-71
2022/01/15 07:54:07;;;;;;;18.30;7.60;;;1.80;99.90;;;;;;5073806;28;20462;-71
2022/01/15 07:56:34;;;;;;;27.17;7.50;;;1.80;99.90;;;;;;5073886;28;20940;-71
2022/01/15 07:59:01;;;;;;;24.07;7.90;;;1.90;99.90;;;;;;5073748;28;20930;-72
2022/01/15 08:01:30;;;;;;;26.93;7.63;;;1.90;99.90;;;;;;5074426;28;20454;-71
2022/01/15 08:03:58;;;;;;;23.63;6.57;;;1.90;99.90;;;;;;5073889;28;20458;-71
2022/01/15 08:06:25;;;;;;;24.43;7.03;;;1.90;99.90;;;;;;5073688;28;20493;-71
2022/01/15 08:08:52;;;;;;;18.30;7.43;;;1.90;99.90;;;;;;5073623;28;20466;-71
2022/01/15 08:11:19;;;;;;;17.97;7.53;;;1.90;99.90;;;;;;5078263;28;20670;-73
2022/01/15 08:13:45;;;;;;;29.37;8.70;;;1.90;99.90;;;;;;5082803;28;20922;-72
2022/01/15 08:16:12;;;;;;;21.33;7.90;;;1.90;99.90;;;;;;5082830;28;20886;-72
2022/01/15 08:18:40;;;;;;;26.07;9.07;;;2.00;99.90;;;;;;5081501;28;20454;-71
2022/01/15 08:21:08;;;;;;;21.40;8.57;;;2.10;99.90;;;;;;5081055;28;20457;-72
2022/01/15 08:23:37;;;;;;;18.97;7.50;;;2.20;99.90;;;;;;5080663;28;20473;-72
2022/01/15 08:26:04;;;;;;;26.13;9.37;;;2.20;99.90;;;;;;5080155;28;20471;-71
2022/01/15 08:28:31;;;;;;;22.27;8.20;;;2.30;99.90;;;;;;5080156;28;20453;-71
2022/01/15 08:30:57;;;;;;;23.83;8.90;;;2.30;99.90;;;;;;5080788;28;20465;-71
2022/01/15 08:33:24;;;;;;;20.57;7.40;;;2.40;99.90;;;;;;5080567;28;20466;-73
2022/01/15 08:35:51;;;;;;;21.10;8.23;;;2.40;99.90;;;;;;5080915;28;20450;-72
2022/01/15 08:38:19;;;;;;;27.80;9.13;;;2.50;99.90;;;;;;5083245;28;20524;-72
2022/01/15 08:40:45;;;;;;;25.97;8.03;;;2.40;99.90;;;;;;5083236;28;20454;-73
2022/01/15 08:43:13;;;;;;;24.67;7.40;;;2.40;99.90;;;;;;5083380;28;20462;-72
2022/01/15 08:45:40;;;;;;;13.87;6.27;;;2.30;99.90;;;;;;5083623;28;20560;-72
2022/01/15 08:48:07;;;;;;;17.97;6.70;;;2.30;99.90;;;;;;5081066;28;20494;-72
2022/01/15 08:50:35;;;;;;;20.20;6.60;;;2.30;99.90;;;;;;5079188;28;20507;-72
2022/01/15 08:53:01;;;;;;;19.93;6.80;;;2.30;99.90;;;;;;5079433;28;20458;-72
2022/01/15 08:55:29;;;;;;;28.17;7.47;;;2.30;99.90;;;;;;5078632;28;20485;-72
2022/01/15 08:57:56;;;;;;;16.87;7.53;;;2.30;99.90;;;;;;5078527;28;20467;-72
2022/01/15 09:00:25;;;;;;;20.73;8.10;;;2.30;99.90;;;;;;5080027;28;20454;-72
2022/01/15 09:02:52;;;;;;;26.53;7.80;;;2.40;99.90;;;;;;5078711;28;20458;-72
2022/01/15 09:05:19;;;;;;;15.27;7.77;;;2.40;99.90;;;;;;5079480;28;20494;-71
2022/01/15 09:07:46;;;;;;;17.17;7.80;;;2.30;99.90;;;;;;5079919;28;20545;-72
2022/01/15 09:10:13;;;;;;;19.63;6.83;;;2.40;99.90;;;;;;5079800;28;20493;-72
2022/01/15 09:12:41;;;;;;;17.03;6.77;;;2.30;99.90;;;;;;5080786;28;20458;-72
2022/01/15 09:15:09;;;;;;;18.70;6.20;;;2.30;99.90;;;;;;5080921;28;20457;-72
2022/01/15 09:17:35;;;;;;;19.47;6.77;;;2.30;99.90;;;;;;5081279;28;20827;-72
2022/01/15 09:20:03;;;;;;;14.53;6.77;;;2.30;99.90;;;;;;5081574;28;20787;-72
2022/01/15 09:22:29;;;;;;;15.00;7.47;;;2.30;99.90;;;;;;5082621;28;20468;-72
2022/01/15 09:24:56;;;;;;;24.53;6.67;;;2.30;99.90;;;;;;5080904;28;20492;-73
2022/01/15 09:30:12;;;;;;;18.07;7.07;;;2.40;99.90;;;;;;5057484;28;20824;-70
2022/01/15 09:32:43;;;;;;;19.90;7.87;;;2.50;99.90;;;;;;5079517;28;20466;-73
2022/01/15 09:35:10;;;;;;;18.03;8.10;;;2.50;99.90;;;;;;5078390;28;20455;-72
2022/01/15 09:37:37;;;;;;;18.10;7.47;;;2.50;99.90;;;;;;5078432;28;20450;-72
2022/01/15 09:40:05;;;;;;;16.03;7.13;;;2.50;99.90;;;;;;5077921;28;20454;-72
2022/01/15 09:42:33;;;;;;;22.43;7.40;;;2.50;99.90;;;;;;5077759;28;20461;-72
2022/01/15 09:45:00;;;;;;;23.87;7.60;;;2.60;99.90;;;;;;5077398;28;20533;-72
2022/01/15 09:47:29;;;;;;;15.00;6.33;;;2.60;99.90;;;;;;5076791;28;20490;-71
2022/01/15 09:49:57;;;;;;;20.77;7.83;;;2.50;99.90;;;;;;5077618;28;20469;-74
2022/01/15 09:52:25;;;;;;;19.80;7.40;;;2.60;99.90;;;;;;5077469;28;20475;-71
2022/01/15 09:54:53;;;;;;;22.47;8.27;;;2.50;99.90;;;;;;5077390;28;20465;-72
2022/01/15 09:57:20;;;;;;;15.43;7.20;;;2.50;99.90;;;;;;5076412;28;20563;-73
2022/01/15 09:59:47;;;;;;;20.80;8.23;;;2.50;99.90;;;;;;5076308;28;20469;-73
2022/01/15 10:02:14;;;;;;;20.10;7.60;;;2.50;99.90;;;;;;5077326;28;20470;-73
2022/01/15 10:04:43;;;;;;;16.27;6.50;;;2.50;99.90;;;;;;5078316;28;20796;-73
2022/01/15 10:07:13;;;;;;;22.10;8.33;;;2.50;99.90;;;;;;5078931;28;20470;-73
2022/01/15 10:09:41;;;;;;;26.50;8.03;;;2.50;99.90;;;;;;5078110;28;20442;-73
2022/01/15 10:12:12;;;;;;;23.50;6.73;;;2.50;99.90;;;;;;5078653;28;20663;-75
2022/01/15 10:14:41;;;;;;;20.33;7.90;;;2.50;99.90;;;;;;5077821;28;20458;-72
2022/01/15 10:17:21;;;;;;;22.10;7.13;;;2.60;99.90;;;;;;5079028;28;20446;-73
2022/01/15 10:19:51;;;;;;;17.13;6.87;;;2.60;99.90;;;;;;5078844;28;20443;-73
2022/01/15 10:22:20;;;;;;;15.30;7.30;;;2.60;99.90;;;;;;5079180;28;20524;-73
2022/01/15 10:24:53;;;;;;;16.30;7.23;;;2.70;99.90;;;;;;5079161;28;20465;-72
2022/01/15 10:27:25;;;;;;;14.87;6.10;;;2.60;99.90;;;;;;5078713;28;20485;-72
2022/01/15 10:29:58;;;;;;;19.73;7.20;;;2.70;99.90;;;;;;5078756;28;20438;-72
2022/01/15 10:32:25;;;;;;;20.23;6.43;;;2.80;99.90;;;;;;5078871;28;20442;-73
2022/01/15 10:34:54;;;;;;;17.80;7.50;;;2.80;99.90;;;;;;5079153;28;20458;-72
2022/01/15 10:37:24;;;;;;;17.40;6.17;;;2.80;99.90;;;;;;5078245;28;20450;-73
2022/01/15 10:39:59;;;;;;;13.70;5.73;;;2.90;99.90;;;;;;5077756;28;20568;-72
2022/01/15 10:42:26;;;;;;;21.83;7.10;;;2.90;99.90;;;;;;5079185;28;20563;-72
2022/01/15 10:44:56;;;;;;;17.17;6.40;;;2.90;99.90;;;;;;5078173;28;20458;-72
2022/01/15 10:47:25;;;;;;;18.20;6.10;;;3.00;99.90;;;;;;5077688;28;20527;-73
2022/01/15 10:49:57;;;;;;;15.43;5.90;;;3.00;99.90;;;;;;5078481;28;20915;-73
2022/01/15 10:52:25;;;;;;;14.83;6.23;;;3.00;99.90;;;;;;5079818;28;20442;-72
2022/01/15 10:55:06;;;;;;;16.43;6.13;;;2.90;99.90;;;;;;5080329;28;20895;-72
2022/01/15 10:57:35;;;;;;;16.90;6.10;;;2.70;99.90;;;;;;5079445;28;20552;-72
2022/01/15 11:00:13;;;;;;;17.43;5.90;;;2.70;99.90;;;;;;5078722;28;20472;-73
2022/01/15 11:02:41;;;;;;;15.47;6.27;;;2.60;99.90;;;;;;5079501;28;20909;-71
2022/01/15 11:05:29;;;;;;;11.63;5.60;;;2.60;99.90;;;;;;5079920;28;20469;-71
2022/01/15 11:08:07;;;;;;;17.33;7.73;;;2.50;99.90;;;;;;5079433;28;20950;-72
2022/01/15 11:10:38;;;;;;;20.57;6.90;;;2.50;99.90;;;;;;5078074;28;20555;-72
2022/01/15 11:13:07;;;;;;;17.83;8.97;;;2.40;99.90;;;;;;5079595;28;20438;-72
2022/01/15 11:15:35;;;;;;;22.83;9.30;;;2.40;99.90;;;;;;5078597;28;20760;-72
2022/01/15 11:18:03;;;;;;;18.10;9.13;;;2.60;99.90;;;;;;5076815;28;20493;-72
2022/01/15 11:20:34;;;;;;;23.50;10.60;;;2.70;99.90;;;;;;5076247;28;20472;-72
2022/01/15 11:23:02;;;;;;;26.20;12.43;;;2.70;99.90;;;;;;5078377;28;20514;-72
2022/01/15 11:25:30;;;;;;;25.47;13.30;;;2.80;99.90;;;;;;5078430;28;20465;-72
2022/01/15 11:27:57;;;;;;;33.97;13.93;;;2.80;99.90;;;;;;5079314;28;20506;-72
2022/01/15 11:30:25;;;;;;;33.90;14.43;;;2.80;99.90;;;;;;5076969;28;20477;-71
2022/01/15 11:32:53;;;;;;;27.47;11.53;;;2.80;99.90;;;;;;5078470;28;20938;-71
2022/01/15 11:35:19;;;;;;;31.93;13.17;;;2.80;99.90;;;;;;5079100;28;20919;-71
2022/01/15 11:37:52;;;;;;;34.13;14.33;;;2.80;99.90;;;;;;5078590;28;20469;-72
2022/01/15 11:40:40;;;;;;;32.27;17.03;;;2.80;99.90;;;;;;5078688;28;20448;-72
2022/01/15 11:43:47;;;;;;;41.77;16.07;;;2.80;99.90;;;;;;5079289;28;20442;-72
2022/01/15 11:46:29;;;;;;;37.93;14.33;;;2.90;99.90;;;;;;5075584;28;20477;-73
2022/01/15 11:49:32;;;;;;;39.00;14.80;;;2.90;99.90;;;;;;5082518;28;20934;-72
2022/01/15 11:52:46;;;;;;;38.30;15.17;;;2.90;99.90;;;;;;5082855;28;20476;-72
2022/01/15 11:55:29;;;;;;;32.73;15.90;;;2.80;99.90;;;;;;5083371;28;20854;-72
2022/01/15 11:57:59;;;;;;;31.50;15.40;;;2.80;99.90;;;;;;5083056;28;20910;-72
2022/01/15 12:00:28;;;;;;;37.13;14.20;;;2.90;99.90;;;;;;5083308;28;20910;-72
2022/01/15 12:03:16;;;;;;;34.47;12.30;;;3.00;99.90;;;;;;5083276;28;20748;-72
2022/01/15 12:05:45;;;;;;;34.20;12.50;;;3.10;99.90;;;;;;5083441;28;20462;-73
2022/01/15 12:08:33;;;;;;;24.33;13.13;;;3.10;99.90;;;;;;5080720;28;20485;-74
2022/01/15 12:11:04;;;;;;;23.87;11.00;;;3.10;99.90;;;;;;5081095;28;20533;-73
2022/01/15 12:13:42;;;;;;;18.77;10.57;;;3.10;99.90;;;;;;5082701;28;20480;-72
2022/01/15 12:16:26;;;;;;;19.50;10.43;;;3.20;99.90;;;;;;5081604;28;20497;-72
2022/01/15 12:18:55;;;;;;;24.20;9.13;;;3.10;99.90;;;;;;5080388;28;20489;-72
2022/01/15 12:21:54;;;;;;;18.33;8.00;;;3.20;99.90;;;;;;5079016;28;20464;-72
2022/01/15 12:24:41;;;;;;;21.80;8.33;;;3.20;99.90;;;;;;5078882;28;20442;-73
2022/01/15 12:27:12;;;;;;;25.93;10.33;;;3.30;99.90;;;;;;5078183;28;20463;-72
2022/01/15 12:29:39;;;;;;;19.67;8.20;;;3.40;99.90;;;;;;5079151;28;20442;-71
2022/01/15 12:32:07;;;;;;;18.57;8.60;;;3.40;99.90;;;;;;5080704;28;20462;-72
2022/01/15 12:34:34;;;;;;;25.10;9.17;;;3.30;99.90;;;;;;5080590;28;20469;-71
2022/01/15 12:37:01;;;;;;;17.83;7.80;;;3.20;99.90;;;;;;5081284;28;20454;-72
2022/01/15 12:39:35;;;;;;;23.97;7.67;;;3.20;99.90;;;;;;5080402;28;20458;-72
2022/01/15 12:42:02;;;;;;;22.13;6.83;;;3.10;99.90;;;;;;5079932;28;20446;-72
2022/01/15 12:44:31;;;;;;;19.70;9.20;;;3.10;99.90;;;;;;5081187;28;20462;-71
2022/01/15 12:46:59;;;;;;;25.73;8.13;;;3.00;99.90;;;;;;5079761;28;20482;-72
2022/01/15 12:49:37;;;;;;;17.20;8.90;;;3.10;99.90;;;;;;5079229;28;20450;-72
2022/01/15 12:52:17;;;;;;;35.53;8.70;;;3.10;99.90;;;;;;5078756;28;20450;-72
2022/01/15 12:54:48;;;;;;;21.43;8.60;;;3.10;99.90;;;;;;5078984;28;20464;-72
2022/01/15 12:57:35;;;;;;;22.93;7.53;;;3.10;99.90;;;;;;5078692;28;20464;-72
2022/01/15 13:00:05;;;;;;;23.40;7.73;;;3.20;99.90;;;;;;5079046;28;20438;-72
2022/01/15 13:02:32;;;;;;;25.03;9.00;;;3.20;99.90;;;;;;5080835;28;20481;-71
2022/01/15 13:04:59;;;;;;;20.73;8.43;;;3.20;99.90;;;;;;5080728;28;20455;-71
2022/01/15 13:07:25;;;;;;;18.07;7.77;;;3.10;99.90;;;;;;5081879;28;20482;-72
2022/01/15 13:09:52;;;;;;;23.77;7.57;;;3.00;99.90;;;;;;5079722;28;20485;-72
2022/01/15 13:12:19;;;;;;;14.13;8.53;;;3.00;99.90;;;;;;5081166;28;20488;-72
2022/01/15 13:14:46;;;;;;;20.70;7.23;;;3.00;99.90;;;;;;5079174;28;20737;-72
2022/01/15 13:17:26;;;;;;;16.80;6.97;;;3.00;99.90;;;;;;5079968;28;20457;-72